createdAt,value
2018-03-14T00:00:00.572Z,7.30
2018-03-14T00:02:28.788Z,7.20
2018-03-14T00:04:56.238Z,6.60
2018-03-14T00:07:23.705Z,7.25
2018-03-14T00:09:51.126Z,7.45
2018-03-14T00:12:18.584Z,7.07
2018-03-14T00:14:46.009Z,8.27
2018-03-14T00:17:14.230Z,7.07
2018-03-14T00:19:41.665Z,6.30
2018-03-14T00:22:09.118Z,6.55
2018-03-14T00:24:36.557Z,7.10
2018-03-14T00:27:04.810Z,6.82
2018-03-14T00:29:32.348Z,7.57
2018-03-14T00:31:59.784Z,7.12
2018-03-14T00:34:27.238Z,6.07
2018-03-14T00:36:54.684Z,5.97
2018-03-14T00:39:22.155Z,6.75
2018-03-14T00:41:49.721Z,6.55
2018-03-14T00:44:17.192Z,6.07
2018-03-14T00:46:44.627Z,6.60
2018-03-14T00:49:12.075Z,5.25
2018-03-14T00:51:39.522Z,5.87
2018-03-14T00:54:07.045Z,6.05
2018-03-14T00:56:35.398Z,5.95
2018-03-14T00:59:03.593Z,5.70
2018-03-14T01:01:31.053Z,6.78
2018-03-14T01:03:58.548Z,5.70
2018-03-14T01:06:25.997Z,5.78
2018-03-14T01:08:53.493Z,5.93
2018-03-14T01:11:20.970Z,5.97
2018-03-14T01:13:48.388Z,6.00
2018-03-14T01:16:15.863Z,5.32
2018-03-14T01:18:43.345Z,5.65
2018-03-14T01:21:10.792Z,6.65
2018-03-14T01:23:38.237Z,6.65
2018-03-14T01:26:05.761Z,5.68
2018-03-14T01:28:33.852Z,6.50
2018-03-14T01:31:01.309Z,5.68
2018-03-14T01:33:28.769Z,6.82
2018-03-14T01:35:56.227Z,6.20
2018-03-14T01:38:23.761Z,6.40
2018-03-14T01:40:51.222Z,6.62
2018-03-14T01:43:18.710Z,7.12
2018-03-14T01:45:46.111Z,6.93
2018-03-14T01:48:13.551Z,7.75
2018-03-14T01:50:41.768Z,6.70
2018-03-14T01:53:21.091Z,6.87
2018-03-14T01:55:48.552Z,7.20
2018-03-14T01:58:16.003Z,7.12
2018-03-14T02:00:43.448Z,8.32
2018-03-14T02:03:10.916Z,7.68
2018-03-14T02:05:38.474Z,6.95
2018-03-14T02:08:05.932Z,6.80
2018-03-14T02:10:33.355Z,8.05
2018-03-14T02:13:01.579Z,7.20
2018-03-14T02:15:29.100Z,6.95
2018-03-14T02:17:56.586Z,7.78
2018-03-14T02:20:24.033Z,7.80
2018-03-14T02:22:51.483Z,7.95
2018-03-14T02:25:18.959Z,8.50
2018-03-14T02:27:46.414Z,8.35
2018-03-14T02:30:14.057Z,7.90
2018-03-14T02:32:41.499Z,7.75
2018-03-14T02:35:08.938Z,8.10
2018-03-14T02:37:37.147Z,7.47
2018-03-14T02:40:04.622Z,7.87
2018-03-14T02:42:32.063Z,8.88
2018-03-14T02:44:59.539Z,8.82
2018-03-14T02:47:26.979Z,8.75
2018-03-14T02:49:54.527Z,7.93
2018-03-14T02:52:21.955Z,7.47
2018-03-14T02:54:49.437Z,8.88
2018-03-14T02:57:16.889Z,8.30
2018-03-14T02:59:44.340Z,9.85
2018-03-14T03:02:11.785Z,9.40
2018-03-14T03:04:39.231Z,7.65
2018-03-14T03:07:06.667Z,9.50
2018-03-14T03:09:34.904Z,9.23
2018-03-14T03:12:02.375Z,10.10
2018-03-14T03:14:29.843Z,9.73
2018-03-14T03:16:57.353Z,9.48
2018-03-14T03:19:24.860Z,9.68
2018-03-14T03:21:52.250Z,10.43
2018-03-14T03:24:20.466Z,9.15
2018-03-14T03:26:48.104Z,8.02
2018-03-14T03:29:15.524Z,8.00
2018-03-14T03:31:43.756Z,8.50
2018-03-14T03:34:11.206Z,10.20
2018-03-14T03:36:38.654Z,8.30
2018-03-14T03:39:06.112Z,9.90
2018-03-14T03:41:34.338Z,9.73
2018-03-14T03:44:02.556Z,10.10
2018-03-14T03:46:30.123Z,9.88
2018-03-14T03:48:57.561Z,7.65
2018-03-14T03:51:25.021Z,8.45
2018-03-14T03:53:52.476Z,10.50
2018-03-14T03:56:19.994Z,7.93
2018-03-14T04:01:22.217Z,8.23
2018-03-14T04:03:49.839Z,9.48
2018-03-14T04:06:18.072Z,8.85
2018-03-14T04:08:45.525Z,8.88
2018-03-14T04:11:13.738Z,8.40
2018-03-14T04:13:41.984Z,10.05
2018-03-14T04:16:09.428Z,10.02
2018-03-14T04:18:36.883Z,9.30
2018-03-14T04:21:04.334Z,8.70
2018-03-14T04:23:31.893Z,9.07
2018-03-14T04:25:59.363Z,8.55
2018-03-14T04:28:26.824Z,8.85
2018-03-14T04:30:54.382Z,8.55
2018-03-14T04:33:21.927Z,9.02
2018-03-14T04:35:49.376Z,8.52
2018-03-14T04:38:16.857Z,8.40
2018-03-14T04:40:44.289Z,7.18
2018-03-14T04:43:11.763Z,9.57
2018-03-14T04:45:39.219Z,7.12
2018-03-14T04:48:06.659Z,8.02
2018-03-14T04:50:34.135Z,6.95
2018-03-14T04:53:01.570Z,8.05
2018-03-14T04:55:29.028Z,8.68
2018-03-14T04:57:56.483Z,7.70
2018-03-14T05:00:23.948Z,7.32
2018-03-14T05:02:51.389Z,7.53
2018-03-14T05:05:18.880Z,6.90
2018-03-14T05:07:46.316Z,8.30
2018-03-14T05:10:13.919Z,7.90
2018-03-14T05:12:42.180Z,6.78
2018-03-14T05:15:10.424Z,7.22
2018-03-14T05:17:37.862Z,7.65
2018-03-14T05:20:05.341Z,8.60
2018-03-14T05:22:32.799Z,8.00
2018-03-14T05:25:00.269Z,7.97
2018-03-14T05:27:27.728Z,7.70
2018-03-14T05:29:55.200Z,8.30
2018-03-14T05:32:23.452Z,8.25
2018-03-14T05:34:50.912Z,9.40
2018-03-14T05:37:18.373Z,10.00
2018-03-14T05:39:46.589Z,10.98
2018-03-14T05:42:14.084Z,10.50
2018-03-14T05:44:41.515Z,12.57
2018-03-14T05:47:09.008Z,15.05
2018-03-14T05:49:36.462Z,12.37
2018-03-14T05:52:03.957Z,10.90
2018-03-14T05:54:31.406Z,10.50
2018-03-14T05:57:00.376Z,9.93
2018-03-14T05:59:27.818Z,8.93
2018-03-14T06:01:55.307Z,10.60
2018-03-14T06:04:23.630Z,8.35
2018-03-14T06:06:51.102Z,9.20
2018-03-14T06:09:18.601Z,9.88
2018-03-14T06:11:46.017Z,8.35
2018-03-14T06:14:13.508Z,8.75
2018-03-14T06:16:41.766Z,8.60
2018-03-14T06:19:09.991Z,9.57
2018-03-14T06:21:37.468Z,8.82
2018-03-14T06:24:04.920Z,7.72
2018-03-14T06:26:32.355Z,8.63
2018-03-14T06:28:59.832Z,9.07
2018-03-14T06:31:27.314Z,7.32
2018-03-14T06:33:54.860Z,8.32
2018-03-14T06:36:22.291Z,8.30
2018-03-14T06:38:49.750Z,8.50
2018-03-14T06:41:17.196Z,8.00
2018-03-14T06:43:45.502Z,7.60
2018-03-14T06:46:12.939Z,8.45
2018-03-14T06:48:41.701Z,7.95
2018-03-14T06:51:09.634Z,8.05
2018-03-14T06:53:37.099Z,8.65
2018-03-14T06:56:04.556Z,8.05
2018-03-14T06:58:44.090Z,9.40
2018-03-14T07:01:23.346Z,8.27
2018-03-14T07:04:02.692Z,9.00
2018-03-14T07:06:30.278Z,7.68
2018-03-14T07:08:57.783Z,8.02
2018-03-14T07:11:25.252Z,7.45
2018-03-14T07:13:52.700Z,8.85
2018-03-14T07:16:20.253Z,8.05
2018-03-14T07:18:47.710Z,8.90
2018-03-14T07:21:15.944Z,6.82
2018-03-14T07:23:43.444Z,7.05
2018-03-14T07:26:10.927Z,7.72
2018-03-14T07:28:38.367Z,7.78
2018-03-14T07:31:05.931Z,8.45
2018-03-14T07:33:33.376Z,7.20
2018-03-14T07:36:00.848Z,8.27
2018-03-14T07:38:28.359Z,9.15
2018-03-14T07:40:55.900Z,7.65
2018-03-14T07:43:24.227Z,7.28
2018-03-14T07:45:51.690Z,9.75
2018-03-14T07:48:19.227Z,8.45
2018-03-14T07:50:46.681Z,7.95
2018-03-14T07:53:14.224Z,9.40
2018-03-14T07:55:41.677Z,9.35
2018-03-14T07:58:09.155Z,8.65
2018-03-14T08:00:41.270Z,8.20
2018-03-14T08:03:08.728Z,9.43
2018-03-14T08:05:36.172Z,7.40
2018-03-14T08:08:03.969Z,8.35
2018-03-14T08:10:31.407Z,7.68
2018-03-14T08:12:58.868Z,9.30
2018-03-14T08:15:26.312Z,8.20
2018-03-14T08:17:53.836Z,9.27
2018-03-14T08:20:21.339Z,9.18
2018-03-14T08:22:48.790Z,9.75
2018-03-14T08:25:16.281Z,10.45
2018-03-14T08:27:43.821Z,8.80
2018-03-14T08:30:11.287Z,10.55
2018-03-14T08:32:38.757Z,9.10
2018-03-14T08:35:06.236Z,9.85
2018-03-14T08:37:33.688Z,9.35
2018-03-14T08:40:01.161Z,11.38
2018-03-14T08:42:28.623Z,10.93
2018-03-14T08:44:56.869Z,11.70
2018-03-14T08:47:24.314Z,10.68
2018-03-14T08:49:51.782Z,10.50
2018-03-14T08:52:19.221Z,10.32
2018-03-14T08:54:46.679Z,11.43
2018-03-14T08:57:14.119Z,11.12
2018-03-14T08:59:41.598Z,10.60
2018-03-14T09:02:09.057Z,11.38
2018-03-14T09:04:36.565Z,10.48
2018-03-14T09:07:04.028Z,11.15
2018-03-14T09:09:31.487Z,11.32
2018-03-14T09:11:58.954Z,10.70
2018-03-14T09:14:26.411Z,11.20
2018-03-14T09:16:54.647Z,11.05
2018-03-14T09:19:22.170Z,10.52
2018-03-14T09:21:49.775Z,11.55
2018-03-14T09:24:18.008Z,10.82
2018-03-14T09:26:45.463Z,12.27
2018-03-14T09:29:12.918Z,11.98
2018-03-14T09:31:41.098Z,10.43
2018-03-14T09:34:08.535Z,11.63
2018-03-14T09:36:35.993Z,10.48
2018-03-14T09:39:03.472Z,10.95
2018-03-14T09:41:30.908Z,12.20
2018-03-14T09:43:58.386Z,11.43
2018-03-14T09:46:25.840Z,12.02
2018-03-14T09:48:54.066Z,10.88
2018-03-14T09:51:21.529Z,10.38
2018-03-14T09:53:49.001Z,11.10
2018-03-14T09:56:16.470Z,11.07
2018-03-14T09:58:43.951Z,12.10
2018-03-14T10:01:11.403Z,12.80
2018-03-14T10:03:39.795Z,11.75
2018-03-14T10:06:07.236Z,13.68
2018-03-14T10:08:34.688Z,12.05
2018-03-14T10:11:02.141Z,11.85
2018-03-14T10:13:29.611Z,11.00
2018-03-14T10:15:57.147Z,9.88
2018-03-14T10:18:24.613Z,10.57
2018-03-14T10:20:52.072Z,10.70
2018-03-14T10:23:19.524Z,11.63
2018-03-14T10:25:47.874Z,11.73
2018-03-14T10:28:15.220Z,11.23
2018-03-14T10:30:42.727Z,11.50
2018-03-14T10:33:10.263Z,9.97
2018-03-14T10:35:37.744Z,10.40
2018-03-14T10:38:05.194Z,9.70
2018-03-14T10:40:32.661Z,8.83
2018-03-14T10:43:00.112Z,8.20
2018-03-14T10:45:28.351Z,8.20
2018-03-14T10:47:55.878Z,8.97
2018-03-14T10:50:23.343Z,8.63
2018-03-14T10:52:50.804Z,7.70
2018-03-14T10:55:18.267Z,6.93
2018-03-14T10:57:46.199Z,6.83
2018-03-14T11:00:19.290Z,6.67
2018-03-14T11:02:52.362Z,7.43
2018-03-14T11:05:20.300Z,6.65
2018-03-14T11:07:53.185Z,6.78
2018-03-14T11:10:20.614Z,7.67
2018-03-14T11:13:08.218Z,7.43
2018-03-14T11:15:36.994Z,6.67
2018-03-14T11:18:04.498Z,6.80
2018-03-14T11:20:32.387Z,6.87
2018-03-14T11:22:59.853Z,7.10
2018-03-14T11:25:27.301Z,6.90
2018-03-14T11:27:55.599Z,6.53
2018-03-14T11:30:23.846Z,6.40
2018-03-14T11:32:51.321Z,6.50
2018-03-14T11:35:18.772Z,7.20
2018-03-14T11:37:46.308Z,5.43
2018-03-14T11:40:13.784Z,6.33
2018-03-14T11:42:41.308Z,5.40
2018-03-14T11:45:09.764Z,5.60
2018-03-14T11:47:37.233Z,6.50
2018-03-14T11:50:04.709Z,6.20
2018-03-14T11:52:33.040Z,5.50
2018-03-14T11:55:01.421Z,5.87
2018-03-14T11:57:29.674Z,5.50
2018-03-14T11:59:57.135Z,5.80
2018-03-14T12:02:24.617Z,5.70
2018-03-14T12:04:52.156Z,5.90
2018-03-14T12:07:21.005Z,6.40
2018-03-14T12:09:49.211Z,6.47
2018-03-14T12:12:16.698Z,5.93
2018-03-14T12:14:44.140Z,5.20
2018-03-14T12:17:11.610Z,6.80
2018-03-14T12:19:39.076Z,8.20
2018-03-14T12:22:21.407Z,11.50
2018-03-14T12:24:48.875Z,5.57
2018-03-14T12:27:16.320Z,7.83
2018-03-14T12:29:43.800Z,8.70
2018-03-14T12:32:11.243Z,7.40
2018-03-14T12:34:38.726Z,9.67
2018-03-14T12:37:06.236Z,7.37
2018-03-14T12:39:33.748Z,7.17
2018-03-14T12:42:01.192Z,10.37
2018-03-14T12:44:28.692Z,7.50
2018-03-14T12:46:56.147Z,8.23
2018-03-14T12:49:23.621Z,7.50
2018-03-14T12:51:51.153Z,7.10
2018-03-14T12:54:19.674Z,6.90
2018-03-14T12:56:47.212Z,6.40
2018-03-14T12:59:14.902Z,7.03
2018-03-14T13:01:43.228Z,7.60
2018-03-14T13:04:10.782Z,7.60
2018-03-14T13:06:39.269Z,7.47
2018-03-14T13:09:06.847Z,7.47
2018-03-14T13:11:34.429Z,8.10
2018-03-14T13:14:02.425Z,7.90
2018-03-14T13:16:33.758Z,7.33
2018-03-14T13:19:01.739Z,8.13
2018-03-14T13:21:29.287Z,8.07
2018-03-14T13:23:56.820Z,7.70
2018-03-14T13:26:25.112Z,7.40
2018-03-14T13:28:52.646Z,7.63
2018-03-14T13:31:20.164Z,8.50
2018-03-14T13:33:48.424Z,9.73
2018-03-14T13:36:15.940Z,9.17
2018-03-14T13:38:43.479Z,9.67
2018-03-14T13:41:10.967Z,8.47
2018-03-14T13:43:38.459Z,8.77
2018-03-14T13:46:05.911Z,7.43
2018-03-14T13:48:33.376Z,8.33
2018-03-14T13:51:00.871Z,7.50
2018-03-14T13:53:28.307Z,8.03
2018-03-14T13:55:55.757Z,7.70
2018-03-14T13:58:23.246Z,6.90
2018-03-14T14:00:51.736Z,7.60
2018-03-14T14:03:20.294Z,7.47
2018-03-14T14:05:48.585Z,9.60
2018-03-14T14:08:16.050Z,9.23
2018-03-14T14:10:43.512Z,9.37
2018-03-14T14:13:10.983Z,10.23
2018-03-14T14:15:38.471Z,10.07
2018-03-14T14:18:05.928Z,9.23
2018-03-14T14:20:33.392Z,10.50
2018-03-14T14:23:01.615Z,9.50
2018-03-14T14:25:29.091Z,9.93
2018-03-14T14:27:56.570Z,10.17
2018-03-14T14:30:24.033Z,9.77
2018-03-14T14:32:51.551Z,10.87
2018-03-14T14:35:19.028Z,10.87
2018-03-14T14:37:46.473Z,10.67
2018-03-14T14:40:13.955Z,10.60
2018-03-14T14:42:41.399Z,11.10
2018-03-14T14:45:08.866Z,10.73
2018-03-14T14:47:36.318Z,11.53
2018-03-14T14:50:03.787Z,10.60
2018-03-14T14:52:32.021Z,10.30
2018-03-14T14:54:59.484Z,13.00
2018-03-14T14:57:26.998Z,10.50
2018-03-14T14:59:54.490Z,12.07
2018-03-14T15:02:21.947Z,10.33
2018-03-14T15:04:49.435Z,11.60
2018-03-14T15:07:17.799Z,10.87
2018-03-14T15:09:45.260Z,10.57
2018-03-14T15:12:12.737Z,11.10
2018-03-14T15:14:40.952Z,9.93
2018-03-14T15:17:08.423Z,11.17
2018-03-14T15:19:35.887Z,10.97
2018-03-14T15:22:03.337Z,10.17
2018-03-14T15:24:30.804Z,10.70
2018-03-14T15:26:58.320Z,9.67
2018-03-14T15:29:26.520Z,10.17
2018-03-14T15:31:54.006Z,10.93
2018-03-14T15:34:21.457Z,12.03
2018-03-14T15:36:48.932Z,11.10
2018-03-14T15:39:16.376Z,10.57
2018-03-14T15:41:43.833Z,11.63
2018-03-14T15:44:11.305Z,10.00
2018-03-14T15:46:38.747Z,10.10
2018-03-14T15:49:06.391Z,9.97
2018-03-14T15:51:33.877Z,10.00
2018-03-14T15:54:02.840Z,10.77
2018-03-14T15:56:30.387Z,10.33
2018-03-14T15:58:57.880Z,10.20
2018-03-14T16:01:26.093Z,10.10
2018-03-14T16:03:53.577Z,10.80
2018-03-14T16:06:21.036Z,11.23
2018-03-14T16:08:49.270Z,9.97
2018-03-14T16:11:16.741Z,10.48
2018-03-14T16:13:44.215Z,10.38
2018-03-14T16:16:11.679Z,9.55
2018-03-14T16:18:39.152Z,11.90
2018-03-14T16:21:06.718Z,10.25
2018-03-14T16:23:35.057Z,9.38
2018-03-14T16:26:02.530Z,11.38
2018-03-14T16:28:30.060Z,8.73
2018-03-14T16:30:57.529Z,10.57
2018-03-14T16:33:25.009Z,9.02
2018-03-14T16:35:52.541Z,9.85
2018-03-14T17:02:38.596Z,8.23
2018-03-14T17:05:06.095Z,10.10
2018-03-14T17:07:34.322Z,9.18
2018-03-14T17:10:01.843Z,9.07
2018-03-14T17:12:29.336Z,10.35
2018-03-14T17:14:56.790Z,10.65
2018-03-14T17:17:25.073Z,11.63
2018-03-14T17:19:52.855Z,11.57
2018-03-14T17:22:20.313Z,11.00
2018-03-14T17:24:47.782Z,12.40
2018-03-14T17:27:15.273Z,11.40
2018-03-14T17:29:42.713Z,10.68
2018-03-14T17:32:10.976Z,10.52
2018-03-14T17:34:38.412Z,9.77
2018-03-14T17:37:05.871Z,9.18
2018-03-14T17:39:33.331Z,10.23
2018-03-14T17:42:00.826Z,9.85
2018-03-14T17:44:28.299Z,10.10
2018-03-14T17:46:55.770Z,10.48
2018-03-14T17:49:23.233Z,11.23
2018-03-14T17:51:50.805Z,10.15
2018-03-14T17:54:18.331Z,11.45
2018-03-14T17:56:45.884Z,9.65
2018-03-14T17:59:13.438Z,11.20
2018-03-14T18:01:41.119Z,10.45
2018-03-14T18:04:08.586Z,11.60
2018-03-14T18:06:36.059Z,11.77
2018-03-14T18:09:03.540Z,9.70
2018-03-14T18:11:31.831Z,10.93
2018-03-14T18:13:59.329Z,10.00
2018-03-14T18:16:26.770Z,11.05
2018-03-14T18:18:54.246Z,10.05
2018-03-14T18:21:21.792Z,10.00
2018-03-14T18:23:50.531Z,11.50
2018-03-14T18:26:17.987Z,11.07
2018-03-14T18:28:45.539Z,11.23
2018-03-14T18:31:13.772Z,11.20
2018-03-14T18:33:41.276Z,12.37
2018-03-14T18:36:09.497Z,10.82
2018-03-14T18:38:36.998Z,12.30
2018-03-14T18:41:05.291Z,11.55
2018-03-14T18:43:32.755Z,12.20
2018-03-14T18:46:00.258Z,11.93
2018-03-14T18:48:27.732Z,12.15
2018-03-14T18:50:55.226Z,12.35
2018-03-14T18:53:29.316Z,13.20
2018-03-14T18:55:56.783Z,11.70
2018-03-14T18:58:24.233Z,11.25
2018-03-14T19:00:52.506Z,11.90
2018-03-14T19:03:20.800Z,11.32
2018-03-14T19:05:48.295Z,11.57
2018-03-14T19:08:15.756Z,12.50
2018-03-14T19:10:43.213Z,13.70
2018-03-14T19:13:10.676Z,12.10
2018-03-14T19:15:38.652Z,14.00
2018-03-14T19:18:06.103Z,12.63
2018-03-14T19:20:33.591Z,13.85
2018-03-14T19:23:01.800Z,14.48
2018-03-14T19:25:29.283Z,13.10
2018-03-14T19:27:56.848Z,12.98
2018-03-14T19:30:24.345Z,13.15
2018-03-14T19:32:51.796Z,13.77
2018-03-14T19:35:20.596Z,13.02
2018-03-14T19:37:48.170Z,12.80
2018-03-14T19:40:15.597Z,13.52
2018-03-14T19:42:43.117Z,13.20
2018-03-14T19:45:10.683Z,13.10
2018-03-14T19:47:38.151Z,13.55
2018-03-14T19:50:05.601Z,13.18
2018-03-14T19:52:33.150Z,13.05
2018-03-14T19:55:00.653Z,13.05
2018-03-14T19:57:28.118Z,12.32
2018-03-14T19:59:55.655Z,12.85
2018-03-14T20:02:24.168Z,13.43
2018-03-14T20:04:51.724Z,13.75
2018-03-14T20:07:19.366Z,11.90
2018-03-14T20:09:46.878Z,12.55
2018-03-14T20:12:14.426Z,12.75
2018-03-14T20:14:42.068Z,13.70
2018-03-14T20:17:09.508Z,13.23
2018-03-14T20:19:37.036Z,12.23
2018-03-14T20:22:04.603Z,13.23
2018-03-14T20:24:32.210Z,13.85
2018-03-14T20:26:59.676Z,14.15
2018-03-14T20:29:27.175Z,11.98
2018-03-14T20:31:54.696Z,13.15
2018-03-14T20:34:22.496Z,10.95
2018-03-14T20:36:50.689Z,12.73
2018-03-14T20:39:18.131Z,13.02
2018-03-14T20:41:45.715Z,11.32
2018-03-14T20:44:13.152Z,14.18
2018-03-14T20:46:40.724Z,13.38
2018-03-14T20:49:08.172Z,12.23
2018-03-14T20:51:35.717Z,11.82
2018-03-14T20:54:03.175Z,12.45
2018-03-14T20:56:30.644Z,11.18
2018-03-14T20:58:58.117Z,12.13
2018-03-14T21:01:25.547Z,13.00
2018-03-14T21:03:52.996Z,11.48
2018-03-14T21:06:20.463Z,12.43
2018-03-14T21:08:47.938Z,12.10
2018-03-14T21:11:15.404Z,12.70
2018-03-14T21:13:42.850Z,13.02
2018-03-14T21:16:10.665Z,13.20
2018-03-14T21:18:38.117Z,12.55
2018-03-14T21:21:05.597Z,12.10
2018-03-14T21:23:33.796Z,11.70
2018-03-14T21:26:01.253Z,13.70
2018-03-14T21:28:28.743Z,11.80
2018-03-14T21:30:56.231Z,13.15
2018-03-14T21:33:23.685Z,12.63
2018-03-14T21:35:51.199Z,13.02
2018-03-14T21:38:18.911Z,13.95
2018-03-14T21:40:46.318Z,13.05
2018-03-14T21:43:13.776Z,12.02
2018-03-14T21:45:41.223Z,13.60
2018-03-14T21:48:08.755Z,13.45
2018-03-14T21:50:36.283Z,12.95
2018-03-14T21:53:03.855Z,13.95
2018-03-14T21:55:39.970Z,13.35
2018-03-14T21:58:07.418Z,13.07
2018-03-14T22:00:34.872Z,15.18
2018-03-14T22:03:02.470Z,12.63
2018-03-14T22:05:29.893Z,14.10
2018-03-14T22:07:58.141Z,13.88
2018-03-14T22:10:25.666Z,12.55
2018-03-14T22:12:53.152Z,14.77
2018-03-14T22:15:20.630Z,13.00
2018-03-14T22:17:48.099Z,13.27
2018-03-14T22:20:15.556Z,14.20
2018-03-14T22:22:43.036Z,13.82
2018-03-14T22:25:10.592Z,13.52
2018-03-14T22:27:38.855Z,13.30
2018-03-14T22:30:06.343Z,13.30
2018-03-14T22:32:33.812Z,13.70
2018-03-14T22:35:01.316Z,14.63
2018-03-14T22:37:28.834Z,13.07
2018-03-14T22:39:56.283Z,12.93
2018-03-14T22:42:23.758Z,13.57
2018-03-14T22:44:51.229Z,13.38
2018-03-14T22:47:18.678Z,12.63
2018-03-14T22:49:46.581Z,13.75
2018-03-14T22:52:14.263Z,13.62
2018-03-14T22:54:42.454Z,12.80
2018-03-14T22:57:09.941Z,13.32
2018-03-14T22:59:38.205Z,15.75
2018-03-14T23:02:05.708Z,14.25
2018-03-14T23:04:33.925Z,13.15
2018-03-14T23:07:01.408Z,13.90
2018-03-14T23:09:28.858Z,13.40
2018-03-14T23:11:56.345Z,13.60
2018-03-14T23:14:23.885Z,13.40
2018-03-14T23:16:52.097Z,14.95
2018-03-14T23:19:20.300Z,12.60
2018-03-14T23:21:47.859Z,14.45
2018-03-14T23:24:17.542Z,12.55
2018-03-14T23:26:45.010Z,14.05
2018-03-14T23:29:12.584Z,13.35
2018-03-14T23:31:44.431Z,12.50
2018-03-14T23:34:11.886Z,14.85
2018-03-14T23:36:39.357Z,13.27
2018-03-14T23:39:06.842Z,13.95
2018-03-14T23:41:34.316Z,13.02
2018-03-14T23:44:01.847Z,12.52
2018-03-14T23:46:29.297Z,12.40
2018-03-14T23:48:56.766Z,14.27
2018-03-14T23:51:24.829Z,13.93
2018-03-14T23:53:52.290Z,13.07
2018-03-14T23:56:19.931Z,12.63
2018-03-14T23:58:47.392Z,13.10
